createdAt,value
2022-08-03T00:03:08.502Z,96143.97
2022-08-03T00:10:11.296Z,96142.13
2022-08-03T00:17:14.867Z,96145.97
2022-08-03T00:24:17.136Z,96144.47
2022-08-03T00:31:39.831Z,96140.66
2022-08-03T00:38:45.116Z,96131.88
2022-08-03T00:45:50.174Z,96134.28
2022-08-03T00:52:55.605Z,96127.59
2022-08-03T01:00:00.352Z,96130.84
2022-08-03T01:07:11.339Z,96121.44
2022-08-03T01:14:18.985Z,96127.69
2022-08-03T01:21:26.548Z,96117.75
2022-08-03T01:28:39.714Z,96116.53
2022-08-03T01:35:44.920Z,96110.53
2022-08-03T01:42:47.225Z,96108.78
2022-08-03T01:49:50.117Z,96101.75
2022-08-03T01:56:54.108Z,96092.66
2022-08-03T02:04:00.523Z,96094.25
2022-08-03T02:11:04.659Z,96110.91
2022-08-03T02:18:10.583Z,96098.72
2022-08-03T02:25:14.836Z,96097.53
2022-08-03T02:32:19.713Z,96095.59
2022-08-03T02:39:24.282Z,96087.88
2022-08-03T02:46:29.213Z,96084.63
2022-08-03T02:53:31.599Z,96091.41
2022-08-03T03:00:35.394Z,96092.72
2022-08-03T03:07:52.099Z,96094.66
2022-08-03T03:14:55.458Z,96092.38
2022-08-03T03:21:59.122Z,96086.88
2022-08-03T03:29:01.490Z,96091.03
2022-08-03T03:36:04.769Z,96088.25
2022-08-03T03:43:11.442Z,96082.16
2022-08-03T03:50:13.672Z,96083.56
2022-08-03T03:57:15.871Z,96083.03
2022-08-03T04:04:38.237Z,96087.34
2022-08-03T04:11:41.820Z,96087.69
2022-08-03T04:18:45.991Z,96086.00
2022-08-03T04:25:50.052Z,96092.38
2022-08-03T04:32:52.871Z,96091.78
2022-08-03T04:39:57.809Z,96094.47
2022-08-03T04:47:01.510Z,96101.47
2022-08-03T04:54:04.349Z,96101.81
2022-08-03T05:01:06.832Z,96105.19
2022-08-03T05:08:11.241Z,96117.22
2022-08-03T05:15:13.802Z,96118.31
2022-08-03T05:22:16.168Z,96115.59
2022-08-03T05:29:19.864Z,96118.56
2022-08-03T05:36:22.068Z,96114.31
2022-08-03T05:43:24.537Z,96120.56
2022-08-03T05:50:28.161Z,96118.91
2022-08-03T05:57:30.375Z,96119.47
2022-08-03T06:04:33.206Z,96122.66
2022-08-03T06:11:36.870Z,96119.69
2022-08-03T06:18:39.123Z,96125.69
2022-08-03T06:25:41.953Z,96115.31
2022-08-03T06:32:51.961Z,96129.88
2022-08-03T06:39:54.827Z,96118.94
2022-08-03T06:46:57.072Z,96124.03
2022-08-03T06:54:00.808Z,96130.00
2022-08-03T07:01:03.157Z,96129.38
2022-08-03T07:08:05.495Z,96136.81
2022-08-03T07:15:20.665Z,96143.00
2022-08-03T07:22:32.445Z,96133.06
2022-08-03T07:29:34.852Z,96136.84
2022-08-03T07:36:38.414Z,96131.47
2022-08-03T07:43:40.609Z,96131.03
2022-08-03T07:50:42.908Z,96131.66
2022-08-03T07:57:46.649Z,96129.84
2022-08-03T08:04:48.832Z,96126.91
2022-08-03T08:11:51.011Z,96129.41
2022-08-03T08:18:54.569Z,96123.00
2022-08-03T08:25:56.772Z,96133.53
2022-08-03T08:32:58.974Z,96126.56
2022-08-03T08:40:02.528Z,96128.91
2022-08-03T08:47:04.937Z,96139.88
2022-08-03T08:54:07.575Z,96132.72
2022-08-03T09:01:11.197Z,96128.44
2022-08-03T09:08:13.507Z,96133.47
2022-08-03T09:15:20.436Z,96126.66
2022-08-03T09:22:25.753Z,96131.63
2022-08-03T09:29:28.217Z,96123.94
2022-08-03T09:36:37.465Z,96127.69
2022-08-03T09:43:47.551Z,96117.47
2022-08-03T09:50:58.592Z,96119.16
2022-08-03T09:58:14.251Z,96116.81
2022-08-03T10:05:19.870Z,96122.31
2022-08-03T10:12:22.297Z,96110.00
2022-08-03T10:19:25.605Z,96092.22
2022-08-03T10:26:29.152Z,96095.81
2022-08-03T10:33:51.813Z,96098.66
2022-08-03T10:40:58.922Z,96082.72
2022-08-03T10:48:03.134Z,96070.91
2022-08-03T10:55:47.875Z,96071.22
2022-08-03T11:03:12.613Z,96069.63
2022-08-03T11:10:30.063Z,96063.09
2022-08-03T11:17:46.364Z,96064.88
2022-08-03T11:24:59.967Z,96055.50
2022-08-03T11:32:02.190Z,96058.94
2022-08-03T11:39:13.451Z,96053.47
2022-08-03T11:46:28.500Z,96051.84
2022-08-03T11:53:32.199Z,96049.53
2022-08-03T12:00:34.467Z,96043.31
2022-08-03T12:08:03.516Z,96029.38
2022-08-03T12:15:01.484Z,96028.31
2022-08-03T12:22:03.829Z,96028.41
2022-08-03T12:29:07.371Z,96027.78
2022-08-03T12:36:10.109Z,96027.78
2022-08-03T12:43:13.025Z,96016.25
2022-08-03T12:50:25.577Z,96015.81
2022-08-03T12:57:40.372Z,96009.16
2022-08-03T13:04:45.167Z,95988.28
2022-08-03T13:12:02.271Z,96003.16
2022-08-03T13:19:05.225Z,95995.97
2022-08-03T13:26:08.257Z,95992.88
2022-08-03T13:33:11.813Z,95985.78
2022-08-03T13:40:14.761Z,95982.41
2022-08-03T13:47:17.689Z,95980.94
2022-08-03T13:54:21.450Z,95976.06
2022-08-03T14:01:54.324Z,95962.44
2022-08-03T14:08:49.274Z,95965.31
2022-08-03T14:15:52.877Z,95965.00
2022-08-03T14:22:57.463Z,95952.47
2022-08-03T14:30:01.372Z,95952.44
2022-08-03T14:37:05.071Z,95943.53
2022-08-03T14:44:07.984Z,95949.41
2022-08-03T14:51:10.416Z,95939.09
2022-08-03T14:58:20.688Z,95941.53
2022-08-03T15:05:24.002Z,95942.16
2022-08-03T15:12:26.233Z,95932.94
2022-08-03T15:20:04.061Z,95917.34
2022-08-03T15:26:52.343Z,95916.91
2022-08-03T15:33:54.573Z,95920.72
2022-08-03T15:40:58.995Z,95911.75
2022-08-03T15:48:01.407Z,95905.56
2022-08-03T15:55:06.369Z,95905.72
2022-08-03T16:02:09.989Z,95902.19
2022-08-03T16:09:23.425Z,95903.03
2022-08-03T16:16:35.235Z,95887.44
2022-08-03T16:23:39.742Z,95886.41
2022-08-03T16:30:45.965Z,95894.31
2022-08-03T16:37:56.221Z,95886.25
2022-08-03T16:45:00.522Z,95896.13
2022-08-03T16:52:02.817Z,95887.53
2022-08-03T16:59:05.038Z,95880.06
2022-08-03T17:06:10.532Z,95873.28
2022-08-03T17:13:21.538Z,95873.19
2022-08-03T17:20:29.833Z,95880.38
2022-08-03T17:28:48.764Z,95880.88
2022-08-03T17:34:55.796Z,95887.72
2022-08-03T18:07:11.091Z,95897.28
2022-08-03T18:14:16.400Z,95905.38
2022-08-03T18:21:21.413Z,95899.53
2022-08-03T18:28:24.976Z,95907.66
2022-08-03T18:35:53.667Z,95907.94
2022-08-03T18:42:54.855Z,95919.06
2022-08-03T18:50:01.690Z,95903.56
2022-08-03T18:57:06.579Z,95910.16
2022-08-03T19:04:12.339Z,95907.38
2022-08-03T19:11:17.567Z,95914.44
2022-08-03T19:18:20.807Z,95909.88
2022-08-03T19:25:34.413Z,95919.75
2022-08-03T19:32:39.503Z,95915.88
2022-08-03T19:39:56.526Z,95917.50
2022-08-03T19:47:08.400Z,95926.59
2022-08-03T19:54:14.221Z,95923.00
2022-08-03T20:01:21.508Z,95924.66
2022-08-03T20:08:28.450Z,95932.13
2022-08-03T20:15:32.849Z,95934.34
2022-08-03T20:22:45.603Z,95922.25
2022-08-03T20:30:06.689Z,95928.66
2022-08-03T20:37:12.111Z,95925.38
2022-08-03T20:44:16.399Z,95918.72
2022-08-03T20:51:49.910Z,95917.31
2022-08-03T20:58:50.253Z,95917.66
2022-08-03T21:05:55.375Z,95923.56
2022-08-03T21:13:05.680Z,95892.50
2022-08-03T21:13:14.914Z,95922.97
2022-08-03T21:20:20.010Z,95916.59
2022-08-03T21:27:25.425Z,95914.22
2022-08-03T21:34:29.067Z,95911.78
2022-08-03T21:41:31.855Z,95908.03
2022-08-03T21:48:36.468Z,95913.13
2022-08-03T21:55:40.262Z,95904.00
2022-08-03T22:02:44.409Z,95916.53
2022-08-03T22:09:55.622Z,95917.53
2022-08-03T22:16:59.341Z,95908.13
2022-08-03T22:24:02.264Z,95923.47
2022-08-03T22:31:30.920Z,95921.16
2022-08-03T22:38:28.222Z,95918.53
2022-08-03T22:46:07.428Z,95917.47
2022-08-03T22:52:52.935Z,95926.31
2022-08-03T22:59:56.890Z,95929.50
2022-08-03T23:07:00.940Z,95924.97
2022-08-03T23:14:04.220Z,95924.16
2022-08-03T23:21:11.329Z,95921.22
2022-08-03T23:28:14.465Z,95918.56
2022-08-03T23:36:27.550Z,95915.88
2022-08-03T23:42:59.230Z,95923.09
2022-08-03T23:50:01.620Z,95920.75
2022-08-03T23:57:08.100Z,95921.84
